| time (UTC) | temp C | wind direction | speed KPH | gust KPH | rain 1hr cm | rain 24hr cm | rain mn cm | humidity % | barometer mb |
| 20260510133047 | 16 | 198 | 1.6 | 6.4 | 0.00 | 0.00 | 0.00 | 85 | 1013.1 |
| 20260510131539 | 16 | 0 | 0.0 | 3.2 | 0.00 | 0.00 | 0.00 | 85 | 1012.9 |
| 20260510130044 | 16 | 0 | 0.0 | 3.2 | 0.00 | 0.00 | 0.00 | 85 | 1012.9 |
| 20260510124557 | 16 | 0 | 0.0 | 3.2 | 0.00 | 0.00 | 0.00 | 85 | 1012.7 |
| 20260510123045 | 16 | 0 | 0.0 | 3.2 | 0.00 | 0.00 | 0.00 | 85 | 1012.9 |
| 20260510121544 | 16 | 0 | 0.0 | 3.2 | 0.00 | 0.00 | 0.00 | 86 | 1013.0 |
| 20260510120047 | 16 | 0 | 0.0 | 1.6 | 0.00 | 0.00 | 0.00 | 86 | 1012.9 |
| 20260510114545 | 16 | 0 | 0.0 | 3.2 | 0.00 | 0.00 | 0.00 | 86 | 1012.8 |
| 20260510113041 | 15 | 0 | 0.0 | 1.6 | 0.00 | 0.00 | 0.00 | 86 | 1012.8 |
| 20260510111549 | 15 | 0 | 0.0 | 1.6 | 0.00 | 0.00 | 0.00 | 86 | 1012.7 |
| 20260510110047 | 15 | 0 | 0.0 | 1.6 | 0.00 | 0.00 | 0.00 | 86 | 1012.8 |
| 20260510104544 | 15 | 0 | 0.0 | 1.6 | 0.00 | 0.00 | 0.00 | 86 | 1012.9 |
| 20260510103044 | 15 | 0 | 0.0 | 1.6 | 0.00 | 0.00 | 0.00 | 86 | 1012.8 |
| 20260510101542 | 15 | 0 | 0.0 | 1.6 | 0.00 | 0.00 | 0.00 | 86 | 1012.9 |
| 20260510100039 | 15 | 0 | 0.0 | 3.2 | 0.00 | 0.00 | 0.00 | 86 | 1013.0 |
| 20260510094600 | 15 | 167 | 0.0 | 4.8 | 0.00 | 0.00 | 0.00 | 85 | 1012.9 |
| 20260510093054 | 15 | 0 | 0.0 | 4.8 | 0.00 | 0.00 | 0.00 | 85 | 1012.9 |
| 20260510091546 | 15 | 0 | 0.0 | 8.0 | 0.00 | 0.00 | 0.00 | 85 | 1013.0 |
| 20260510090042 | 15 | 0 | 1.6 | 9.7 | 0.00 | 0.00 | 0.00 | 85 | 1013.0 |
| 20260510084540 | 16 | 0 | 0.0 | 6.4 | 0.00 | 0.00 | 0.00 | 85 | 1013.0 |
| 20260510083037 | 16 | 183 | 0.0 | 6.4 | 0.00 | 0.00 | 0.00 | 85 | 1013.0 |
| 20260510081547 | 16 | 197 | 0.0 | 3.2 | 0.00 | 0.00 | 0.00 | 85 | 1013.2 |
| 20260510080037 | 16 | 0 | 1.6 | 8.0 | 0.00 | 0.00 | 0.00 | 85 | 1013.2 |
| 20260510074544 | 16 | 117 | 1.6 | 3.2 | 0.00 | 0.00 | 0.00 | 85 | 1013.3 |
| 20260510073045 | 16 | 211 | 1.6 | 6.4 | 0.00 | 0.00 | 0.00 | 85 | 1013.3 |
| 20260510071548 | 16 | 207 | 3.2 | 9.7 | 0.00 | 0.00 | 0.00 | 85 | 1013.4 |
| 20260510070039 | 16 | 187 | 0.0 | 8.0 | 0.00 | 0.00 | 0.00 | 85 | 1013.2 |
| 20260510064537 | 16 | 197 | 3.2 | 8.0 | 0.00 | 0.00 | 0.00 | 84 | 1013.3 |
| 20260510063043 | 16 | 0 | 1.6 | 4.8 | 0.00 | 0.00 | 0.00 | 85 | 1013.2 |
| 20260510061542 | 16 | 192 | 0.0 | 3.2 | 0.00 | 0.00 | 0.00 | 84 | 1013.3 |
| 20260510060042 | 16 | 0 | 0.0 | 1.6 | 0.00 | 0.00 | 0.00 | 84 | 1013.3 |
| 20260510054549 | 16 | 0 | 0.0 | 1.6 | 0.00 | 0.00 | 0.00 | 84 | 1013.3 |
| 20260510053058 | 16 | 0 | 0.0 | 1.6 | 0.00 | 0.00 | 0.00 | 83 | 1013.4 |
| 20260510051548 | 16 | 0 | 0.0 | 3.2 | 0.00 | 0.00 | 0.00 | 83 | 1013.4 |
| 20260510050047 | 16 | 0 | 0.0 | 1.6 | 0.00 | 0.00 | 0.00 | 83 | 1013.4 |
| 20260510044543 | 16 | 0 | 0.0 | 4.8 | 0.00 | 0.00 | 0.00 | 82 | 1013.4 |
| 20260510043050 | 16 | 0 | 0.0 | 3.2 | 0.00 | 0.00 | 0.00 | 82 | 1013.3 |
| 20260510041547 | 16 | 0 | 0.0 | 3.2 | 0.00 | 0.00 | 0.00 | 81 | 1013.3 |
| 20260510040042 | 16 | 0 | 0.0 | 3.2 | 0.00 | 0.00 | 0.00 | 80 | 1013.1 |
| 20260510034540 | 17 | 0 | 1.6 | 6.4 | 0.00 | 0.00 | 0.00 | 80 | 1012.9 |
| 20260510033037 | 17 | 0 | 0.0 | 4.8 | 0.00 | 0.00 | 0.00 | 79 | 1012.6 |
| 20260510031546 | 17 | 0 | 1.6 | 8.0 | 0.00 | 0.00 | 0.00 | 78 | 1012.4 |
| 20260510030037 | 18 | 289 | 1.6 | 4.8 | 0.00 | 0.00 | 0.00 | 76 | 1012.2 |
| 20260510024544 | 18 | 0 | 0.0 | 6.4 | 0.00 | 0.00 | 0.00 | 75 | 1012.0 |
| 20260510023043 | 18 | 300 | 0.0 | 4.8 | 0.00 | 0.00 | 0.00 | 73 | 1011.8 |
| 20260510021547 | 19 | 293 | 1.6 | 8.0 | 0.00 | 0.00 | 0.00 | 71 | 1011.8 |
| 20260510020039 | 20 | 303 | 1.6 | 6.4 | 0.00 | 0.00 | 0.00 | 69 | 1011.6 |
| 20260510014538 | 21 | 274 | 1.6 | 8.0 | 0.00 | 0.00 | 0.00 | 66 | 1011.5 |
| 20260510013046 | 22 | 319 | 1.6 | 9.7 | 0.00 | 0.00 | 0.00 | 65 | 1011.3 |
| 20260510011543 | 22 | 244 | 1.6 | 6.4 | 0.00 | 0.00 | 0.00 | 65 | 1011.2 |
| 20260510010044 | 23 | 289 | 0.0 | 6.4 | 0.00 | 0.00 | 0.00 | 64 | 1011.1 |
| 20260510004551 | 23 | 150 | 0.0 | 9.7 | 0.00 | 0.00 | 0.00 | 64 | 1011.2 |
| 20260510003045 | 22 | 192 | 6.4 | 11.3 | 0.00 | 0.00 | 0.00 | 65 | 1011.1 |
| 20260510001547 | 22 | 164 | 6.4 | 12.9 | 0.00 | 0.00 | 0.00 | 66 | 1011.3 |
| 20260510000051 | 22 | 159 | 4.8 | 12.9 | 0.00 | 0.00 | 0.00 | 66 | 1011.3 |
| 20260509234544 | 23 | 200 | 4.8 | 14.5 | 0.00 | 0.00 | 0.00 | 64 | 1011.4 |
| 20260509233043 | 23 | 214 | 4.8 | 14.5 | 0.00 | 0.00 | 0.00 | 65 | 1011.4 |
| 20260509231543 | 23 | 224 | 4.8 | 14.5 | 0.00 | 0.00 | 0.00 | 66 | 1011.4 |
| 20260509230045 | 23 | 157 | 4.8 | 17.7 | 0.00 | 0.00 | 0.00 | 65 | 1011.4 |
| 20260509224547 | 23 | 190 | 4.8 | 14.5 | 0.00 | 0.00 | 0.00 | 64 | 1011.5 |
| 20260509223043 | 23 | 205 | 8.0 | 16.1 | 0.00 | 0.00 | 0.00 | 64 | 1011.7 |
| 20260509221543 | 23 | 180 | 6.4 | 16.1 | 0.00 | 0.00 | 0.00 | 65 | 1011.9 |
| 20260509220048 | 23 | 165 | 4.8 | 12.9 | 0.00 | 0.00 | 0.00 | 64 | 1012.1 |
| 20260509214552 | 23 | 169 | 8.0 | 17.7 | 0.00 | 0.00 | 0.00 | 65 | 1012.0 |
| 20260509213037 | 22 | 196 | 9.7 | 17.7 | 0.00 | 0.00 | 0.00 | 65 | 1012.2 |
| 20260509211548 | 23 | 190 | 3.2 | 12.9 | 0.00 | 0.00 | 0.00 | 65 | 1012.5 |
| 20260509210049 | 22 | 229 | 4.8 | 17.7 | 0.00 | 0.00 | 0.00 | 67 | 1012.8 |
| 20260509204543 | 22 | 207 | 6.4 | 16.1 | 0.00 | 0.00 | 0.00 | 66 | 1012.9 |
| 20260509203050 | 22 | 148 | 3.2 | 14.5 | 0.00 | 0.00 | 0.00 | 67 | 1013.0 |
| 20260509201537 | 22 | 186 | 4.8 | 14.5 | 0.00 | 0.00 | 0.00 | 68 | 1013.1 |
| 20260509200040 | 22 | 177 | 3.2 | 16.1 | 0.00 | 0.00 | 0.00 | 67 | 1013.3 |
| 20260509194537 | 22 | 160 | 6.4 | 16.1 | 0.00 | 0.00 | 0.00 | 68 | 1013.4 |
| 20260509193046 | 22 | 180 | 3.2 | 14.5 | 0.00 | 0.00 | 0.00 | 67 | 1013.6 |
| 20260509191554 | 22 | 170 | 4.8 | 12.9 | 0.00 | 0.00 | 0.00 | 68 | 1013.7 |
| 20260509190041 | 21 | 207 | 3.2 | 14.5 | 0.00 | 0.00 | 0.00 | 69 | 1013.8 |
| 20260509184548 | 21 | 283 | 3.2 | 11.3 | 0.00 | 0.00 | 0.00 | 69 | 1013.9 |
| 20260509183056 | 21 | 257 | 3.2 | 12.9 | 0.00 | 0.00 | 0.00 | 71 | 1014.0 |
| 20260509181548 | 20 | 333 | 1.6 | 9.7 | 0.00 | 0.00 | 0.00 | 72 | 1013.9 |
| 20260509180047 | 20 | 210 | 4.8 | 16.1 | 0.00 | 0.00 | 0.00 | 74 | 1014.0 |
| 20260509174601 | 20 | 48 | 1.6 | 8.0 | 0.00 | 0.00 | 0.00 | 75 | 1014.0 |
| 20260509173048 | 19 | 224 | 1.6 | 11.3 | 0.00 | 0.00 | 0.00 | 78 | 1014.1 |
| 20260509171544 | 18 | 0 | 1.6 | 6.4 | 0.00 | 0.00 | 0.00 | 79 | 1014.0 |
| 20260509170044 | 18 | 153 | 1.6 | 6.4 | 0.00 | 0.00 | 0.00 | 80 | 1013.9 |
| 20260509164553 | 18 | 230 | 0.0 | 3.2 | 0.00 | 0.00 | 0.00 | 82 | 1013.9 |
| 20260509163051 | 17 | 171 | 0.0 | 4.8 | 0.00 | 0.00 | 0.00 | 83 | 1013.9 |
| 20260509161549 | 17 | 211 | 0.0 | 4.8 | 0.00 | 0.00 | 0.00 | 84 | 1013.9 |
| 20260509160039 | 17 | 149 | 1.6 | 4.8 | 0.00 | 0.00 | 0.00 | 84 | 1014.1 |
| 20260509154544 | 17 | 205 | 0.0 | 6.4 | 0.00 | 0.00 | 0.00 | 84 | 1014.1 |
| 20260509153054 | 16 | 207 | 1.6 | 6.4 | 0.00 | 0.00 | 0.00 | 85 | 1014.1 |
| 20260509151544 | 16 | 179 | 0.0 | 6.4 | 0.00 | 0.00 | 0.00 | 85 | 1014.0 |
| 20260509150042 | 16 | 208 | 0.0 | 4.8 | 0.00 | 0.00 | 0.00 | 85 | 1014.1 |
| 20260509144546 | 16 | 0 | 0.0 | 1.6 | 0.00 | 0.00 | 0.00 | 86 | 1014.1 |
| 20260509143040 | 16 | 0 | 0.0 | 1.6 | 0.00 | 0.00 | 0.00 | 86 | 1014.0 |
| 20260509141544 | 16 | 157 | 1.6 | 6.4 | 0.00 | 0.00 | 0.00 | 86 | 1014.0 |
| 20260509140038 | 16 | 0 | 1.6 | 8.0 | 0.00 | 0.00 | 0.00 | 86 | 1013.9 |
| 20260509134542 | 16 | 0 | 0.0 | 0.0 | 0.00 | 0.00 | 0.00 | 86 | 1013.7 |